createdAt,value
2022-09-04T00:00:38.171Z,13.10
2022-09-04T00:03:10.625Z,9.18
2022-09-04T00:05:39.406Z,6.18
2022-09-04T00:08:18.980Z,6.78
2022-09-04T00:10:51.670Z,7.15
2022-09-04T00:13:20.794Z,9.95
2022-09-04T00:15:50.297Z,7.88
2022-09-04T00:18:21.380Z,8.02
2022-09-04T00:20:51.286Z,8.57
2022-09-04T00:23:20.618Z,6.82
2022-09-04T00:25:54.403Z,7.95
2022-09-04T00:28:30.599Z,8.80
2022-09-04T00:31:00.818Z,10.45
2022-09-04T00:33:36.465Z,7.72
2022-09-04T00:36:04.375Z,7.20
2022-09-04T00:38:45.681Z,6.88
2022-09-04T00:41:19.535Z,7.95
2022-09-04T00:43:56.845Z,8.27
2022-09-04T00:46:41.918Z,8.18
2022-09-04T00:49:21.440Z,7.63
2022-09-04T00:54:41.837Z,7.95
2022-09-04T00:57:23.946Z,8.30
2022-09-04T01:00:00.201Z,7.57
2022-09-04T01:02:32.564Z,8.05
2022-09-04T01:05:05.563Z,8.80
2022-09-04T01:07:41.566Z,8.82
2022-09-04T01:10:27.651Z,7.95
2022-09-04T01:12:57.733Z,6.68
2022-09-04T01:15:30.464Z,10.18
2022-09-04T01:18:03.081Z,7.28
2022-09-04T01:20:38.771Z,8.90
2022-09-04T01:23:19.489Z,7.50
2022-09-04T01:25:57.982Z,6.90
2022-09-04T01:28:28.615Z,6.20
2022-09-04T01:31:00.053Z,7.73
2022-09-04T01:33:32.980Z,8.15
2022-09-04T01:36:04.615Z,6.30
2022-09-04T01:38:36.143Z,6.95
2022-09-04T01:41:07.315Z,8.55
2022-09-04T01:43:34.959Z,8.00
2022-09-04T01:46:21.410Z,7.20
2022-09-04T01:48:52.550Z,7.68
2022-09-04T01:51:23.887Z,8.23
2022-09-04T01:53:56.570Z,7.68
2022-09-04T01:56:29.746Z,9.43
2022-09-04T01:59:00.363Z,7.70
2022-09-04T02:01:31.875Z,6.32
2022-09-04T02:04:04.366Z,8.00
2022-09-04T02:06:33.612Z,7.65
2022-09-04T02:09:06.432Z,9.05
2022-09-04T02:11:35.038Z,8.50
2022-09-04T02:14:08.800Z,7.95
2022-09-04T02:16:41.137Z,10.70
2022-09-04T02:19:12.418Z,7.93
2022-09-04T02:21:44.387Z,7.80
2022-09-04T02:24:15.916Z,8.70
2022-09-04T02:26:47.800Z,8.65
2022-09-04T02:29:17.695Z,8.13
2022-09-04T02:31:46.782Z,9.88
2022-09-04T02:34:16.865Z,8.95
2022-09-04T02:36:50.149Z,10.13
2022-09-04T02:39:22.797Z,9.02
2022-09-04T02:41:56.003Z,9.20
2022-09-04T02:44:28.294Z,9.52
2022-09-04T02:47:00.713Z,9.98
2022-09-04T02:49:33.412Z,9.73
2022-09-04T02:52:04.371Z,9.52
2022-09-04T02:54:39.590Z,9.40
2022-09-04T02:57:12.980Z,9.37
2022-09-04T02:59:43.738Z,9.20
2022-09-04T03:02:16.167Z,9.87
2022-09-04T03:04:46.127Z,9.10
2022-09-04T03:07:15.351Z,11.13
2022-09-04T03:09:46.015Z,10.47
2022-09-04T03:12:22.147Z,8.80
2022-09-04T03:14:52.224Z,9.00
2022-09-04T03:17:24.866Z,9.07
2022-09-04T03:19:54.292Z,9.83
2022-09-04T03:22:24.811Z,8.20
2022-09-04T03:25:02.533Z,8.10
2022-09-04T03:27:33.014Z,8.48
2022-09-04T03:30:03.527Z,8.30
2022-09-04T03:32:34.806Z,8.50
2022-09-04T03:35:07.549Z,11.80
2022-09-04T03:37:55.994Z,7.78
2022-09-04T03:40:27.790Z,9.03
2022-09-04T03:43:03.939Z,8.75
2022-09-04T03:45:36.968Z,8.63
2022-09-04T03:48:09.506Z,9.03
2022-09-04T03:50:42.815Z,10.43
2022-09-04T03:53:13.414Z,9.65
2022-09-04T03:55:50.114Z,8.53
2022-09-04T03:58:24.354Z,8.63
2022-09-04T04:00:55.978Z,8.23
2022-09-04T04:03:33.288Z,9.47
2022-09-04T04:06:06.887Z,9.03
2022-09-04T04:08:55.179Z,9.70
2022-09-04T04:11:30.683Z,9.97
2022-09-04T04:14:07.723Z,8.43
2022-09-04T04:16:39.684Z,9.53
2022-09-04T04:19:16.308Z,8.87
2022-09-04T04:21:50.923Z,9.40
2022-09-04T04:24:25.925Z,9.87
2022-09-04T04:26:59.251Z,9.30
2022-09-04T04:29:37.572Z,10.50
2022-09-04T04:32:12.160Z,9.57
2022-09-04T04:34:47.284Z,9.30
2022-09-04T04:37:19.946Z,10.10
2022-09-04T04:39:51.488Z,9.93
2022-09-04T04:42:23.101Z,11.00
2022-09-04T04:44:58.155Z,11.20
2022-09-04T04:47:33.391Z,9.37
2022-09-04T04:50:03.949Z,10.40
2022-09-04T04:52:36.651Z,9.80
2022-09-04T04:55:11.508Z,9.37
2022-09-04T04:57:45.279Z,9.57
2022-09-04T05:00:15.454Z,10.17
2022-09-04T05:02:47.085Z,10.13
2022-09-04T05:05:17.911Z,10.57
2022-09-04T05:07:50.507Z,14.03
2022-09-04T05:10:19.035Z,10.30
2022-09-04T05:12:54.472Z,9.47
2022-09-04T05:15:25.354Z,11.27
2022-09-04T05:17:54.954Z,13.50
2022-09-04T05:20:25.462Z,11.17
2022-09-04T05:22:57.334Z,13.47
2022-09-04T05:25:31.152Z,12.53
2022-09-04T05:28:03.811Z,11.50
2022-09-04T05:30:36.275Z,12.20
2022-09-04T05:33:15.144Z,13.40
2022-09-04T05:35:46.191Z,12.43
2022-09-04T05:38:16.954Z,12.10
2022-09-04T05:40:54.552Z,13.83
2022-09-04T05:43:29.310Z,12.23
2022-09-04T05:46:03.622Z,13.00
2022-09-04T05:48:33.085Z,13.67
2022-09-04T05:51:07.774Z,14.73
2022-09-04T05:54:00.892Z,11.10
2022-09-04T05:56:42.630Z,13.00
2022-09-04T05:59:18.516Z,13.17
2022-09-04T06:01:54.948Z,14.23
2022-09-04T06:04:36.887Z,15.53
2022-09-04T06:07:10.083Z,14.97
2022-09-04T06:09:46.803Z,15.67
2022-09-04T06:12:26.534Z,14.50
2022-09-04T06:15:00.419Z,14.83
2022-09-04T06:17:33.529Z,15.70
2022-09-04T06:20:15.225Z,14.47
2022-09-04T06:22:57.060Z,14.57
2022-09-04T06:25:32.420Z,15.00
2022-09-04T06:28:18.700Z,19.13
2022-09-04T06:30:49.426Z,14.30
2022-09-04T06:33:31.660Z,15.33
2022-09-04T06:36:20.269Z,16.03
2022-09-04T06:38:56.188Z,6.00
2022-09-04T06:41:32.883Z,17.20
2022-09-04T06:44:03.689Z,18.83
2022-09-04T06:46:36.533Z,13.70
2022-09-04T06:49:08.823Z,6.37
2022-09-04T06:51:44.183Z,14.57
2022-09-04T06:54:16.506Z,14.30
2022-09-04T06:57:02.488Z,16.30
2022-09-04T06:59:43.188Z,18.63
2022-09-04T07:02:15.527Z,22.10
2022-09-04T07:04:48.253Z,18.40
2022-09-04T07:07:19.110Z,21.73
2022-09-04T07:09:50.341Z,16.47
2022-09-04T07:12:30.912Z,15.17
2022-09-04T07:15:28.507Z,18.57
2022-09-04T07:18:01.652Z,18.33
2022-09-04T07:20:32.073Z,19.13
2022-09-04T07:23:05.390Z,15.80
2022-09-04T07:25:40.222Z,15.27
2022-09-04T07:28:22.438Z,18.87
2022-09-04T07:30:52.953Z,25.13
2022-09-04T07:33:24.004Z,21.30
2022-09-04T07:35:54.769Z,23.20
2022-09-04T07:38:24.695Z,19.27
2022-09-04T07:40:56.134Z,24.30
2022-09-04T07:43:28.517Z,36.77
2022-09-04T07:46:02.686Z,27.33
2022-09-04T07:48:31.612Z,28.97
2022-09-04T07:50:59.856Z,25.33
2022-09-04T07:53:35.557Z,29.50
2022-09-04T07:56:07.664Z,27.47
2022-09-04T07:58:48.787Z,33.70
2022-09-04T08:01:24.999Z,23.92
2022-09-04T08:04:02.587Z,28.15
2022-09-04T08:06:31.998Z,27.42
2022-09-04T08:09:10.522Z,30.92
2022-09-04T08:11:46.026Z,30.13
2022-09-04T08:14:33.721Z,25.73
2022-09-04T08:17:07.652Z,27.63
2022-09-04T08:19:39.286Z,33.10
2022-09-04T08:22:07.454Z,22.70
2022-09-04T08:24:54.795Z,28.30
2022-09-04T08:27:31.994Z,30.50
2022-09-04T08:30:06.636Z,51.80
2022-09-04T08:32:45.831Z,42.65
2022-09-04T08:35:18.275Z,43.60
2022-09-04T08:37:50.459Z,48.20
2022-09-04T08:40:46.198Z,33.15
2022-09-04T08:43:34.511Z,37.77
2022-09-04T08:46:28.782Z,39.88
2022-09-04T08:49:22.701Z,33.08
2022-09-04T08:52:00.147Z,51.88
2022-09-04T08:54:42.434Z,33.55
2022-09-04T08:57:20.934Z,37.75
2022-09-04T09:00:03.620Z,46.80
2022-09-04T09:02:42.630Z,33.80
2022-09-04T09:05:36.815Z,31.40
2022-09-04T09:08:14.403Z,30.95
2022-09-04T09:10:53.855Z,28.98
2022-09-04T09:13:32.850Z,25.27
2022-09-04T09:16:17.755Z,23.52
2022-09-04T09:18:57.582Z,33.75
2022-09-04T09:21:33.725Z,23.13
2022-09-04T09:24:11.905Z,24.02
2022-09-04T09:26:44.578Z,20.33
2022-09-04T09:29:32.740Z,31.02
2022-09-04T09:32:16.692Z,18.58
2022-09-04T09:35:16.938Z,21.45
2022-09-04T09:38:05.002Z,32.78
2022-09-04T09:40:42.341Z,17.92
2022-09-04T09:43:25.523Z,31.52
2022-09-04T09:46:08.877Z,17.70
2022-09-04T09:48:54.138Z,18.40
2022-09-04T09:51:39.550Z,12.70
2022-09-04T09:54:19.870Z,18.52
2022-09-04T09:56:54.261Z,16.38
2022-09-04T09:59:31.949Z,11.68
2022-09-04T10:02:19.087Z,11.13
2022-09-04T10:05:06.386Z,11.73
2022-09-04T10:08:00.116Z,8.95
2022-09-04T10:10:40.443Z,9.23
2022-09-04T10:13:20.160Z,13.30
2022-09-04T10:15:55.677Z,10.38
2022-09-04T10:18:47.147Z,14.75
2022-09-04T10:21:37.131Z,19.77
2022-09-04T10:24:18.438Z,17.48
2022-09-04T10:26:57.200Z,14.60
2022-09-04T10:29:33.331Z,10.48
2022-09-04T10:32:24.742Z,11.77
2022-09-04T10:35:08.540Z,13.73
2022-09-04T10:37:44.635Z,11.05
2022-09-04T10:40:18.751Z,12.82
2022-09-04T10:42:53.145Z,12.50
2022-09-04T10:45:25.799Z,7.10
2022-09-04T10:48:09.908Z,10.43
2022-09-04T10:50:52.134Z,10.85
2022-09-04T10:53:31.569Z,12.27
2022-09-04T10:56:08.967Z,8.73
2022-09-04T10:58:54.232Z,16.15
2022-09-04T11:01:36.621Z,11.15
2022-09-04T11:04:11.981Z,10.30
2022-09-04T11:06:58.750Z,11.18
2022-09-04T11:09:31.792Z,10.43
2022-09-04T11:12:09.854Z,12.35
2022-09-04T11:14:58.605Z,9.10
2022-09-04T11:17:40.920Z,9.23
2022-09-04T11:20:18.532Z,17.88
2022-09-04T11:23:09.866Z,10.85
2022-09-04T11:25:49.690Z,15.65
2022-09-04T11:28:35.443Z,12.30
2022-09-04T11:31:09.085Z,11.98
2022-09-04T11:33:53.361Z,10.82
2022-09-04T11:36:31.131Z,7.50
2022-09-04T11:39:11.326Z,9.32
2022-09-04T11:41:58.144Z,9.98
2022-09-04T11:44:43.392Z,7.43
2022-09-04T11:47:31.738Z,9.85
2022-09-04T11:50:14.636Z,8.98
2022-09-04T11:52:56.818Z,18.30
2022-09-04T11:55:29.583Z,9.15
2022-09-04T11:58:04.111Z,14.48
2022-09-04T12:00:32.898Z,15.30
2022-09-04T12:03:18.684Z,16.50
2022-09-04T12:06:03.991Z,17.95
2022-09-04T12:08:42.227Z,11.07
2022-09-04T12:11:24.413Z,13.43
2022-09-04T12:14:01.138Z,10.85
2022-09-04T12:16:47.880Z,6.57
2022-09-04T12:19:33.187Z,16.80
2022-09-04T12:22:29.156Z,10.35
2022-09-04T12:25:15.163Z,10.05
2022-09-04T12:27:53.938Z,14.48
2022-09-04T12:30:22.783Z,10.35
2022-09-04T12:33:08.902Z,10.07
2022-09-04T12:35:45.341Z,7.95
2022-09-04T12:38:22.576Z,9.35
2022-09-04T12:43:56.203Z,5.63
2022-09-04T12:46:34.493Z,6.00
2022-09-04T12:49:08.911Z,7.97
2022-09-04T12:51:39.471Z,7.38
2022-09-04T12:54:14.058Z,5.72
2022-09-04T12:56:49.133Z,4.78
2022-09-04T12:59:28.503Z,5.72
2022-09-04T13:02:02.026Z,6.05
2022-09-04T13:04:33.843Z,7.13
2022-09-04T13:07:16.120Z,8.20
2022-09-04T13:09:53.636Z,11.63
2022-09-04T13:12:25.742Z,16.98
2022-09-04T13:15:10.923Z,15.13
2022-09-04T13:17:45.488Z,13.25
2022-09-04T13:20:18.048Z,5.20
2022-09-04T13:22:51.947Z,6.15
2022-09-04T13:25:29.846Z,16.08
2022-09-04T13:28:03.592Z,22.73
2022-09-04T13:30:46.769Z,8.27
2022-09-04T13:33:20.819Z,11.93
2022-09-04T13:36:06.026Z,12.10
2022-09-04T13:38:48.172Z,12.68
2022-09-04T13:41:25.311Z,12.27
2022-09-04T13:44:09.020Z,12.95
2022-09-04T13:46:39.278Z,12.43
2022-09-04T13:49:11.591Z,8.40
2022-09-04T13:51:41.006Z,8.07
2022-09-04T13:54:11.771Z,9.45
2022-09-04T13:56:57.923Z,6.93
2022-09-04T13:59:38.629Z,7.75
2022-09-04T14:02:09.339Z,7.95
2022-09-04T14:04:41.351Z,7.70
2022-09-04T14:07:12.452Z,9.00
2022-09-04T14:09:43.141Z,9.60
2022-09-04T14:12:13.167Z,9.25
2022-09-04T14:14:55.295Z,9.20
2022-09-04T14:17:26.581Z,5.93
2022-09-04T14:19:59.316Z,4.85
2022-09-04T14:22:33.691Z,6.75
2022-09-04T14:25:11.945Z,8.13
2022-09-04T14:27:43.022Z,11.15
2022-09-04T14:30:15.008Z,7.80
2022-09-04T14:32:50.466Z,6.82
2022-09-04T14:35:23.794Z,11.80
2022-09-04T14:37:58.528Z,7.10
2022-09-04T14:40:29.524Z,8.45
2022-09-04T14:43:01.882Z,4.13
2022-09-04T14:45:34.290Z,7.82
2022-09-04T14:48:02.343Z,6.63
2022-09-04T14:50:32.235Z,6.50
2022-09-04T14:53:00.619Z,10.07
2022-09-04T14:55:34.776Z,6.50
2022-09-04T14:58:05.972Z,6.75
2022-09-04T15:00:35.040Z,5.63
2022-09-04T15:03:07.020Z,5.38
2022-09-04T15:05:37.702Z,4.80
2022-09-04T15:08:07.015Z,4.70
2022-09-04T15:10:36.546Z,6.35
2022-09-04T15:13:21.764Z,5.15
2022-09-04T15:15:51.460Z,7.72
2022-09-04T15:18:23.968Z,10.35
2022-09-04T15:20:55.545Z,8.90
2022-09-04T15:23:24.371Z,6.20
2022-09-04T15:25:59.715Z,7.20
2022-09-04T15:28:29.865Z,5.47
2022-09-04T15:31:03.484Z,7.60
2022-09-04T15:33:31.028Z,9.80
2022-09-04T15:36:05.113Z,5.13
2022-09-04T15:38:32.972Z,7.85
2022-09-04T15:41:16.550Z,4.82
2022-09-04T15:43:47.451Z,7.53
2022-09-04T15:46:20.822Z,7.63
2022-09-04T15:48:50.066Z,6.50
2022-09-04T15:51:21.531Z,5.22
2022-09-04T15:53:53.030Z,5.70
2022-09-04T15:56:31.603Z,5.75
2022-09-04T15:59:03.140Z,4.57
2022-09-04T16:01:33.156Z,5.32
2022-09-04T16:04:04.035Z,5.80
2022-09-04T16:06:37.622Z,4.78
2022-09-04T16:09:08.831Z,5.20
2022-09-04T16:11:37.332Z,6.97
2022-09-04T16:14:06.031Z,7.65
2022-09-04T16:16:37.040Z,5.00
2022-09-04T16:19:10.703Z,4.97
2022-09-04T16:21:42.508Z,5.70
2022-09-04T16:24:13.663Z,6.20
2022-09-04T16:26:41.014Z,5.03
2022-09-04T16:29:10.947Z,10.05
2022-09-04T16:31:38.625Z,8.18
2022-09-04T16:34:12.320Z,5.45
2022-09-04T16:36:42.242Z,7.53
2022-09-04T16:39:13.864Z,6.85
2022-09-04T16:41:43.861Z,9.45
2022-09-04T16:44:15.239Z,7.90
2022-09-04T16:46:48.277Z,6.53
2022-09-04T16:49:21.318Z,5.10
2022-09-04T16:51:56.708Z,7.10
2022-09-04T16:54:28.995Z,11.10
2022-09-04T16:57:12.892Z,7.22
2022-09-04T16:59:42.303Z,5.30
2022-09-04T17:02:17.566Z,9.07
2022-09-04T17:04:47.992Z,7.70
2022-09-04T17:07:19.032Z,6.82
2022-09-04T17:10:04.069Z,6.68
2022-09-04T17:12:37.457Z,6.32
2022-09-04T17:15:08.905Z,8.25
2022-09-04T17:17:41.398Z,6.90
2022-09-04T17:20:10.198Z,8.70
2022-09-04T17:28:56.730Z,6.78
2022-09-04T17:29:09.741Z,11.98
2022-09-04T17:31:11.525Z,10.23
2022-09-04T17:38:24.316Z,9.00
2022-09-04T17:40:39.103Z,6.68
2022-09-04T17:40:57.398Z,6.75
2022-09-04T17:42:15.683Z,5.80
2022-09-04T17:44:45.561Z,6.50
2022-09-04T17:47:19.013Z,6.53
2022-09-04T17:49:54.110Z,9.38
2022-09-04T17:52:23.100Z,6.93
2022-09-04T17:54:52.186Z,8.20
2022-09-04T17:57:23.470Z,10.98
2022-09-04T17:59:56.171Z,21.90
2022-09-04T18:02:27.213Z,10.70
2022-09-04T18:05:13.928Z,17.70
2022-09-04T18:08:09.712Z,12.63
2022-09-04T18:10:40.252Z,10.48
2022-09-04T18:20:08.922Z,10.77
2022-09-04T18:22:51.201Z,7.55
2022-09-04T18:25:20.303Z,7.30
2022-09-04T18:28:06.359Z,12.43
2022-09-04T18:37:05.258Z,5.75
2022-09-04T18:37:18.979Z,5.82
2022-09-04T18:37:22.450Z,6.03
2022-09-04T18:39:25.802Z,8.27
2022-09-04T18:50:24.772Z,6.53
2022-09-04T18:50:25.844Z,6.63
2022-09-04T18:50:44.415Z,7.82
2022-09-04T18:53:35.903Z,7.65
2022-09-04T18:56:06.295Z,8.90
2022-09-04T18:58:53.966Z,8.15
2022-09-04T19:01:27.387Z,9.07
2022-09-04T19:03:56.416Z,8.60
2022-09-04T19:06:31.566Z,8.18
2022-09-04T19:09:01.561Z,9.27
2022-09-04T19:11:31.787Z,9.02
2022-09-04T19:14:10.329Z,8.65
2022-09-04T19:16:42.176Z,10.43
2022-09-04T19:19:17.810Z,9.45
2022-09-04T19:21:58.142Z,11.98
2022-09-04T19:24:34.265Z,8.30
2022-09-04T19:27:26.975Z,8.35
2022-09-04T19:30:13.999Z,9.38
2022-09-04T19:32:54.128Z,9.38
2022-09-04T19:35:25.077Z,9.63
2022-09-04T19:41:42.967Z,9.48
2022-09-04T19:46:07.511Z,10.38
2022-09-04T19:46:11.591Z,10.02
2022-09-04T19:46:43.002Z,10.13
2022-09-04T19:50:34.097Z,10.75
2022-09-04T19:53:31.150Z,10.85
2022-09-04T19:55:24.694Z,12.00
2022-09-04T19:57:46.063Z,10.85
2022-09-04T20:00:33.702Z,12.50
2022-09-04T20:03:09.331Z,13.98
2022-09-04T20:05:40.035Z,11.52
2022-09-04T20:08:10.562Z,11.40
2022-09-04T20:10:39.327Z,12.27
2022-09-04T20:13:15.271Z,14.65
2022-09-04T20:15:44.489Z,13.10
2022-09-04T20:18:16.367Z,12.98
2022-09-04T20:20:48.340Z,13.80
2022-09-04T20:23:33.865Z,16.45
2022-09-04T20:26:07.331Z,14.55
2022-09-04T20:28:40.408Z,14.43
2022-09-04T20:31:35.963Z,14.15
2022-09-04T20:34:09.560Z,13.30
2022-09-04T20:36:41.019Z,12.90
2022-09-04T20:39:19.468Z,13.30
2022-09-04T20:41:49.607Z,13.70
2022-09-04T20:44:19.831Z,14.80
2022-09-04T20:52:45.382Z,13.88
2022-09-04T20:52:50.477Z,15.18
2022-09-04T20:53:07.572Z,17.45
2022-09-04T20:55:34.923Z,15.68
2022-09-04T21:03:14.935Z,14.20
2022-09-04T21:03:20.595Z,14.73
2022-09-04T21:04:01.768Z,13.32
2022-09-04T21:06:32.507Z,13.48
2022-09-04T21:09:14.611Z,13.93
2022-09-04T21:11:45.346Z,14.75
2022-09-04T21:14:14.672Z,12.45
2022-09-04T21:16:49.802Z,14.23
2022-09-04T21:19:29.886Z,14.20
2022-09-04T21:22:24.498Z,15.02
2022-09-04T21:25:27.670Z,15.23
2022-09-04T21:28:12.624Z,15.52
2022-09-04T21:30:50.817Z,13.18
2022-09-04T21:33:27.786Z,15.38
2022-09-04T21:36:05.784Z,13.80
2022-09-04T21:38:57.225Z,15.07
2022-09-04T21:41:31.282Z,17.02
2022-09-04T21:44:24.360Z,14.18
2022-09-04T21:46:58.589Z,15.55
2022-09-04T21:49:33.900Z,15.88
2022-09-04T21:52:16.056Z,15.23
2022-09-04T21:56:00.745Z,14.60
2022-09-04T22:02:31.070Z,13.77
2022-09-04T22:02:48.470Z,14.30
2022-09-04T22:03:55.907Z,13.02
2022-09-04T22:08:51.162Z,13.35
2022-09-04T22:13:27.176Z,16.55
2022-09-04T22:13:39.703Z,14.07
2022-09-04T22:14:59.615Z,13.50
2022-09-04T22:17:35.801Z,11.70
2022-09-04T22:20:11.474Z,11.68
2022-09-04T22:22:53.592Z,11.48
2022-09-04T22:25:38.119Z,10.75
2022-09-04T22:28:23.134Z,10.32
2022-09-04T22:31:01.284Z,10.35
2022-09-04T22:34:14.401Z,13.82
2022-09-04T22:36:35.840Z,10.55
2022-09-04T22:39:16.365Z,8.10
2022-09-04T22:41:57.948Z,7.55
2022-09-04T22:44:33.595Z,8.45
2022-09-04T22:47:15.700Z,8.63
2022-09-04T22:49:55.549Z,6.85
2022-09-04T22:52:38.991Z,6.40
2022-09-04T22:55:39.595Z,11.75
2022-09-04T22:58:15.766Z,6.45
2022-09-04T23:00:49.194Z,7.45
2022-09-04T23:03:26.011Z,5.50
2022-09-04T23:07:35.379Z,6.90
2022-09-04T23:13:43.532Z,6.10
2022-09-04T23:14:00.695Z,4.68
2022-09-04T23:14:49.960Z,7.85
2022-09-04T23:17:29.481Z,8.65
2022-09-04T23:26:30.883Z,4.68
2022-09-04T23:26:42.364Z,6.25
2022-09-04T23:26:48.653Z,5.22
2022-09-04T23:28:55.685Z,4.63
2022-09-04T23:31:37.191Z,6.22
2022-09-04T23:34:16.939Z,4.53
2022-09-04T23:37:07.868Z,4.90
2022-09-04T23:39:43.502Z,4.07
2022-09-04T23:42:24.039Z,4.03
2022-09-04T23:44:57.429Z,5.13
2022-09-04T23:47:47.040Z,3.53
2022-09-04T23:50:22.392Z,3.42
2022-09-04T23:52:54.011Z,3.42
2022-09-04T23:55:26.230Z,6.80
2022-09-04T23:58:13.390Z,5.00
